Latest Coastal Weather Observations for Lihou Reef Lighthouse

IDQ60701

Issued at 6:54 pm EST Tuesday 3 March 2015 (issued every 10 minutes, with the page automatically refreshed every 10 minutes)

About coastal observations | Map of coastal stations | Coastal observations for QLD | Marine services | Other Formats
Station Details ID: 200880 Name: LIHOU REEF LIGHTHOUSE Lat: -17.13 Lon: 152.15 Height: 0.0 m
Data from the previous 72 hours. | See also: Recent months for locations in Queensland
Date/Time
EST
Temp

°C
Wind Pressure Rain
since 9am
mm
Weather Cloud Vis
km
Sea
Height
m
Swell
Dir
 
Speed
knots
Gust
knots
hPa Trend Height
m
Period
s
Dir
03/06:30pm 27.7 SE 17 18 1007.8 - - - - - - - - -
03/06:00pm 28.0 SE 17 19 1007.6 - - - - - - - - -
03/05:30pm 28.0 SSE 17 19 1007.3 - - - - - - - - -
03/05:00pm 28.1 SE 15 17 1007.1 - - - - - - - - -
03/04:30pm 28.0 SE 16 18 1006.8 - - - - - - - - -
03/04:00pm 28.1 SE 14 17 1006.9 - - - - - - - - -
03/03:30pm 28.1 SE 14 16 1006.9 - - - - - - - - -
03/03:00pm 28.1 SE 15 18 1006.9 - - - - - - - - -
03/02:30pm 28.0 SE 15 17 1007.0 - - - - - - - - -
03/02:00pm 28.1 SE 15 17 1007.2 - - - - - - - - -
03/01:30pm 28.1 SE 14 16 1007.6 - - - - - - - - -
03/01:00pm 28.1 SE 13 16 1008.1 - - - - - - - - -
03/12:30pm 28.0 SE 14 16 1008.4 - - - - - - - - -
03/12:00pm 28.1 SE 13 16 1008.7 - - - - - - - - -
03/11:30am 28.2 SE 13 16 1009.0 - - - - - - - - -
03/11:00am 28.1 SE 15 18 1009.1 - - - - - - - - -
03/10:30am 27.8 SE 16 18 1009.2 - - - - - - - - -
03/10:00am 27.4 SE 14 22 1009.2 - - - - - - - - -
03/09:30am 27.6 SE 15 18 1009.2 - - - - - - - - -
03/09:00am 27.9 SE 15 17 1009.1 - - - - - - - - -
03/08:30am 27.9 SE 17 19 1008.9 - - - - - - - - -
03/08:00am 27.8 SE 16 19 1008.7 - - - - - - - - -
03/07:30am 27.7 SE 17 20 1008.5 - - - - - - - - -
03/07:00am 27.5 SE 17 21 1008.3 - - - - - - - - -
03/06:30am 27.0 SE 11 14 1008.1 - - - - - - - - -
03/06:00am 26.6 SSE 13 16 1007.8 - - - - - - - - -
03/05:30am 26.7 SE 18 20 1007.2 - - - - - - - - -
03/05:00am 27.3 ESE 17 19 1007.0 - - - - - - - - -
03/04:30am 27.2 SE 14 17 1007.0 - - - - - - - - -
03/04:00am 27.0 SE 17 19 1007.0 - - - - - - - - -
03/03:30am 26.8 SE 19 23 1006.9 - - - - - - - - -
03/03:00am 27.6 SE 16 19 1006.8 - - - - - - - - -
03/02:30am 27.7 SE 16 20 1007.2 - - - - - - - - -
03/02:00am 27.1 SSE 16 19 1007.3 - - - - - - - - -
03/01:30am 27.4 SSE 17 20 1007.6 - - - - - - - - -
03/01:00am 27.8 SE 15 18 1008.1 - - - - - - - - -
03/12:30am 27.6 SE 16 19 1008.2 - - - - - - - - -
03/12:00am 27.6 SE 15 19 1008.4 - - - - - - - - -
 
Date/Time
EST
Temp

°C
Wind Pressure Rain
since 9am
mm
Weather Cloud Vis
km
Sea
Height
m
Swell
Dir
 
Speed
knots
Gust
knots
hPa Trend Height
m
Period
s
Dir
02/11:30pm 27.5 SE 16 19 1008.5 - - - - - - - - -
02/11:00pm 27.6 SE 18 20 1008.7 - - - - - - - - -
02/10:30pm 27.8 SE 16 19 1008.8 - - - - - - - - -
02/10:00pm 27.5 SE 17 20 1008.7 - - - - - - - - -
02/09:30pm 27.9 SE 15 17 1008.6 - - - - - - - - -
02/09:00pm 27.8 SE 16 18 1008.3 - - - - - - - - -
02/08:30pm 27.8 SE 16 19 1008.1 - - - - - - - - -
02/08:00pm 27.8 SE 16 19 1007.9 - - - - - - - - -
02/07:30pm 27.8 SE 15 18 1007.6 - - - - - - - - -
02/07:00pm 27.9 SSE 16 19 1007.2 - - - - - - - - -
02/06:30pm 27.9 SSE 16 18 1007.0 - - - - - - - - -
02/06:00pm 28.0 SE 17 18 1006.8 - - - - - - - - -
02/05:30pm 27.9 SE 16 19 1006.5 - - - - - - - - -
02/05:00pm 28.0 SSE 15 17 1006.4 - - - - - - - - -
02/04:30pm 28.1 SSE 15 18 1006.2 - - - - - - - - -
02/04:00pm 28.1 SSE 15 17 1005.9 - - - - - - - - -
02/03:30pm 27.9 SSE 15 17 1006.0 - - - - - - - - -
02/03:00pm 28.1 SSE 13 15 1006.2 - - - - - - - - -
02/02:30pm 27.9 SE 12 14 1006.5 - - - - - - - - -
02/02:00pm 27.9 SSE 12 14 1006.6 - - - - - - - - -
02/01:30pm 28.0 SSE 11 13 1006.7 - - - - - - - - -
02/01:00pm 27.9 S 10 11 1006.9 - - - - - - - - -
02/12:30pm 27.9 SSE 8 10 1007.3 - - - - - - - - -
02/12:00pm 27.8 SSE 9 11 1007.7 - - - - - - - - -
02/11:30am 27.7 SSE 9 11 1008.0 - - - - - - - - -
02/11:00am 27.7 SSE 9 11 1008.6 - - - - - - - - -
02/10:30am 27.8 SE 7 10 1008.7 - - - - - - - - -
02/10:00am 27.6 SSE 8 10 1008.6 - - - - - - - - -
02/09:30am 27.6 SSE 8 10 1008.8 - - - - - - - - -
02/09:00am 27.8 SE 8 10 1008.8 - - - - - - - - -
02/08:30am 27.8 SE 9 11 1008.7 - - - - - - - - -
02/08:00am 27.7 SE 9 10 1008.5 - - - - - - - - -
02/07:30am 27.4 SSE 9 11 1008.4 - - - - - - - - -
02/07:00am 27.4 SSE 10 11 1008.1 - - - - - - - - -
02/06:30am 27.2 SSE 10 13 1007.7 - - - - - - - - -
02/06:00am 27.1 SSE 10 11 1007.5 - - - - - - - - -
02/05:30am 27.1 SSE 9 11 1007.3 - - - - - - - - -
02/05:00am 27.1 SSE 8 12 1006.9 - - - - - - - - -
02/04:30am 27.1 SSE 9 10 1006.7 - - - - - - - - -
02/04:00am 27.2 SSE 9 11 1006.6 - - - - - - - - -
02/03:30am 27.2 SSE 10 12 1006.5 - - - - - - - - -
02/03:00am 27.3 SSE 9 11 1006.8 - - - - - - - - -
02/02:30am 27.4 SSE 9 10 1007.0 - - - - - - - - -
02/02:00am 27.2 SSE 10 13 1007.2 - - - - - - - - -
02/01:30am 27.5 SSE 10 12 1007.6 - - - - - - - - -
02/01:00am 27.4 SSE 10 12 1008.0 - - - - - - - - -
02/12:30am 27.4 SSE 11 13 1008.3 - - - - - - - - -
02/12:00am 27.5 SSE 11 13 1008.3 - - - - - - - - -
 
Date/Time
EST
Temp

°C
Wind Pressure Rain
since 9am
mm
Weather Cloud Vis
km
Sea
Height
m
Swell
Dir
 
Speed
knots
Gust
knots
hPa Trend Height
m
Period
s
Dir
01/11:30pm 27.5 SSE 9 12 1008.6 - - - - - - - - -
01/11:00pm 27.5 SSE 10 12 1008.7 - - - - - - - - -
01/10:30pm 27.6 SE 11 13 1008.9 - - - - - - - - -
01/10:00pm 27.5 SSE 11 12 1009.0 - - - - - - - - -
01/09:30pm 27.7 SSE 11 14 1009.0 - - - - - - - - -
01/09:00pm 27.7 SSE 12 14 1008.8 - - - - - - - - -
01/08:30pm 27.8 SSE 11 14 1008.5 - - - - - - - - -
01/08:00pm 27.9 SE 12 15 1008.3 - - - - - - - - -
01/07:30pm 27.8 SSE 10 12 1008.1 - - - - - - - - -
01/07:00pm 27.8 SSE 10 12 1007.9 - - - - - - - - -
01/06:30pm 27.9 SSE 9 11 1007.6 - - - - - - - - -
01/06:00pm 27.9 SSE 9 12 1007.4 - - - - - - - - -
01/05:30pm 28.1 S 9 10 1007.2 - - - - - - - - -
01/05:00pm 28.1 S 9 11 1006.9 - - - - - - - - -
01/04:30pm 28.2 SSE 8 9 1006.7 - - - - - - - - -
01/04:00pm 28.1 SSE 9 10 1006.5 - - - - - - - - -
01/03:30pm 27.9 SSE 10 12 1006.3 - - - - - - - - -
01/03:00pm 27.9 SSE 10 11 1006.5 - - - - - - - - -
01/02:30pm 27.9 SSE 9 11 1006.5 - - - - - - - - -
01/02:00pm 27.7 SSE 9 12 1006.5 - - - - - - - - -
01/01:30pm 27.8 SSE 9 12 1006.7 - - - - - - - - -
01/01:00pm 27.8 SSE 10 13 1007.1 - - - - - - - - -
01/12:30pm 27.8 SSE 11 13 1007.6 - - - - - - - - -
01/12:00pm 27.7 SSE 11 13 1007.8 - - - - - - - - -
01/11:30am 27.8 SSE 10 12 1008.1 - - - - - - - - -
01/11:00am 27.8 SSE 9 11 1008.1 - - - - - - - - -
01/10:30am 27.8 SSE 9 10 1008.2 - - - - - - - - -
01/10:00am 27.9 SSE 8 10 1008.3 - - - - - - - - -
01/09:30am 27.8 SE 8 10 1008.3 - - - - - - - - -
01/09:00am 27.8 SSE 10 12 1008.3 - - - - - - - - -
01/08:30am 27.8 SE 9 11 1008.2 - - - - - - - - -
01/08:00am 27.9 SE 10 11 1008.0 - - - - - - - - -
01/07:30am 27.8 SE 10 12 1007.8 - - - - - - - - -
01/07:00am 27.8 SE 7 10 1007.7 - - - - - - - - -
01/06:30am 27.3 SE 9 12 1007.3 - - - - - - - - -
01/06:00am 27.3 SE 10 11 1007.2 - - - - - - - - -
01/05:30am 27.3 SE 11 13 1006.9 - - - - - - - - -
01/05:00am 27.4 SE 11 13 1006.6 - - - - - - - - -
01/04:30am 27.4 SE 11 13 1006.6 - - - - - - - - -
01/04:00am 27.4 SE 10 12 1006.6 - - - - - - - - -
01/03:30am 27.4 SE 11 12 1006.4 - - - - - - - - -
01/03:00am 27.4 SE 11 13 1006.4 - - - - - - - - -
01/02:30am 27.6 SE 12 14 1006.3 - - - - - - - - -
01/02:00am 27.4 SSE 11 13 1006.6 - - - - - - - - -
01/01:30am 27.6 SE 10 13 1007.0 - - - - - - - - -
01/01:00am 27.6 SSE 12 14 1007.4 - - - - - - - - -
01/12:30am 27.7 SE 11 13 1007.7 - - - - - - - - -
01/12:00am 27.8 SE 12 14 1007.9 - - - - - - - - -
 
Date/Time
EST
Temp

°C
Wind Pressure Rain
since 9am
mm
Weather Cloud Vis
km
Sea
Height
m
Swell
Dir
 
Speed
knots
Gust
knots
hPa Trend Height
m
Period
s
Dir
28/11:30pm 27.8 SE 12 14 1008.1 - - - - - - - - -
28/11:00pm 27.7 SE 12 14 1008.1 - - - - - - - - -
28/10:30pm 27.8 SE 12 14 1008.3 - - - - - - - - -
28/10:00pm 27.8 SE 12 15 1008.3 - - - - - - - - -
28/09:30pm 27.9 SE 11 13 1008.4 - - - - - - - - -
28/09:00pm 27.9 SE 11 14 1008.3 - - - - - - - - -
28/08:30pm 28.1 SSE 12 15 1008.0 - - - - - - - - -
28/08:00pm 28.0 SE 12 14 1007.8 - - - - - - - - -
28/07:30pm 28.0 SSE 13 15 1007.6 - - - - - - - - -
28/07:00pm 28.1 SSE 12 14 1007.3 - - - - - - - - -

Other Formats:

Comma delimited format used in spreadsheet applications
http://www.bom.gov.au/fwo/IDQ60701/IDQ60701.94293.axf

JavaScript Object Notation format (JSON) in row-major order
http://www.bom.gov.au/fwo/IDQ60701/IDQ60701.94293.json